createdAt,value
2023-12-02T00:01:27.541Z,85.87
2023-12-02T00:03:59.172Z,86.31
2023-12-02T00:06:25.986Z,86.76
2023-12-02T00:08:52.583Z,86.14
2023-12-02T00:11:19.109Z,86.49
2023-12-02T00:13:45.756Z,86.41
2023-12-02T00:16:12.393Z,86.24
2023-12-02T00:18:39.103Z,86.75
2023-12-02T00:21:10.503Z,86.33
2023-12-02T00:23:37.066Z,86.36
2023-12-02T00:26:03.975Z,86.57
2023-12-02T00:28:30.520Z,86.68
2023-12-02T00:30:57.159Z,86.86
2023-12-02T00:33:28.790Z,86.04
2023-12-02T00:35:55.765Z,86.21
2023-12-02T00:38:22.374Z,86.21
2023-12-02T00:40:51.328Z,86.01
2023-12-02T00:43:20.319Z,86.37
2023-12-02T00:45:46.845Z,86.29
2023-12-02T00:48:21.618Z,86.61
2023-12-02T00:50:48.439Z,86.46
2023-12-02T00:53:17.555Z,86.45
2023-12-02T00:55:44.111Z,86.54
2023-12-02T00:58:11.044Z,86.84
2023-12-02T01:00:37.705Z,86.52
2023-12-02T01:03:04.562Z,87.06
2023-12-02T01:05:31.218Z,86.36
2023-12-02T01:07:57.924Z,86.53
2023-12-02T01:10:24.560Z,86.66
2023-12-02T01:12:54.514Z,86.45
2023-12-02T01:15:21.346Z,86.87
2023-12-02T01:17:48.128Z,87.20
2023-12-02T01:20:15.205Z,86.63
2023-12-02T01:22:41.741Z,86.63
2023-12-02T01:25:08.618Z,87.52
2023-12-02T01:27:35.356Z,86.72
2023-12-02T01:30:07.483Z,86.72
2023-12-02T01:32:36.470Z,86.75
2023-12-02T01:35:05.963Z,86.49
2023-12-02T01:37:32.733Z,87.30
2023-12-02T01:39:59.295Z,86.79
2023-12-02T01:42:26.214Z,87.04
2023-12-02T01:44:52.855Z,86.55
2023-12-02T01:47:19.400Z,86.82
2023-12-02T01:49:46.433Z,86.97
2023-12-02T01:52:15.616Z,86.84
2023-12-02T01:54:44.114Z,86.94
2023-12-02T01:57:11.316Z,86.97
2023-12-02T01:59:45.490Z,87.23
2023-12-02T02:02:12.088Z,87.26
2023-12-02T02:04:43.614Z,87.13
2023-12-02T02:07:10.642Z,87.23
2023-12-02T02:09:48.414Z,86.99
2023-12-02T02:12:16.149Z,87.29
2023-12-02T02:14:43.054Z,87.20
2023-12-02T02:17:14.266Z,87.69
2023-12-02T02:19:40.960Z,87.60
2023-12-02T02:22:10.012Z,87.41
2023-12-02T02:24:37.434Z,87.42
2023-12-02T02:27:06.563Z,87.61
2023-12-02T02:29:33.129Z,87.84
2023-12-02T02:31:59.862Z,87.88
2023-12-02T02:34:27.184Z,88.01
2023-12-02T02:36:53.983Z,87.80
2023-12-02T02:39:20.825Z,87.31
2023-12-02T02:41:50.122Z,87.78
2023-12-02T02:44:17.045Z,87.80
2023-12-02T02:46:43.724Z,88.36
2023-12-02T02:49:13.368Z,88.07
2023-12-02T02:51:42.220Z,87.59
2023-12-02T02:54:10.981Z,88.06
2023-12-02T02:56:39.751Z,88.04
2023-12-02T02:59:08.564Z,88.35
2023-12-02T03:01:35.173Z,88.13
2023-12-02T03:04:04.578Z,88.05
2023-12-02T03:06:31.516Z,88.30
2023-12-02T03:08:58.260Z,88.64
2023-12-02T03:11:24.915Z,89.26
2023-12-02T03:13:51.467Z,88.88
2023-12-02T03:16:21.489Z,88.70
2023-12-02T03:18:48.394Z,88.73
2023-12-02T03:21:14.991Z,89.07
2023-12-02T03:23:41.711Z,88.83
2023-12-02T03:26:08.522Z,89.14
2023-12-02T03:28:35.240Z,88.74
2023-12-02T03:31:02.715Z,88.54
2023-12-02T03:33:31.578Z,88.74
2023-12-02T03:35:58.323Z,88.36
2023-12-02T03:38:24.879Z,88.32
2023-12-02T03:40:51.448Z,88.34
2023-12-02T03:43:20.740Z,88.33
2023-12-02T03:45:49.763Z,88.67
2023-12-02T03:48:16.386Z,88.59
2023-12-02T03:50:45.259Z,88.43
2023-12-02T03:53:14.326Z,88.49
2023-12-02T03:55:40.873Z,88.31
2023-12-02T03:58:07.429Z,89.16
2023-12-02T04:00:36.862Z,88.84
2023-12-02T04:03:04.157Z,88.56
2023-12-02T04:05:30.836Z,88.29
2023-12-02T04:07:57.692Z,88.62
2023-12-02T04:10:24.368Z,88.70
2023-12-02T04:12:51.233Z,88.50
2023-12-02T04:15:18.261Z,88.70
2023-12-02T04:17:44.985Z,88.28
2023-12-02T04:20:16.536Z,88.74
2023-12-02T04:22:43.469Z,88.73
2023-12-02T04:29:04.608Z,88.46
2023-12-02T04:31:31.674Z,88.93
2023-12-02T04:33:58.424Z,88.73
2023-12-02T04:36:26.114Z,88.94
2023-12-02T04:38:52.771Z,88.49
2023-12-02T04:41:19.306Z,88.64
2023-12-02T04:43:45.828Z,88.18
2023-12-02T04:46:12.377Z,88.36
2023-12-02T04:48:39.019Z,88.81
2023-12-02T04:51:08.430Z,88.67
2023-12-02T04:53:35.049Z,88.93
2023-12-02T04:56:03.642Z,88.04
2023-12-02T04:58:30.210Z,89.09
2023-12-02T05:00:56.797Z,88.63
2023-12-02T05:03:24.044Z,88.60
2023-12-02T05:05:50.689Z,88.17
2023-12-02T05:08:17.269Z,89.07
2023-12-02T05:10:44.260Z,88.78
2023-12-02T05:13:13.109Z,88.52
2023-12-02T05:15:44.356Z,88.43
2023-12-02T05:18:11.881Z,88.89
2023-12-02T05:20:38.500Z,88.30
2023-12-02T05:23:05.693Z,88.51
2023-12-02T05:25:32.264Z,88.45
2023-12-02T05:27:58.854Z,88.64
2023-12-02T05:30:28.501Z,88.76
2023-12-02T05:32:55.207Z,88.23
2023-12-02T05:35:23.358Z,88.66
2023-12-02T05:37:51.663Z,88.43
2023-12-02T05:40:18.901Z,88.93
2023-12-02T05:42:47.783Z,88.90
2023-12-02T05:45:16.518Z,88.91
2023-12-02T05:47:43.332Z,89.18
2023-12-02T05:50:11.168Z,88.59
2023-12-02T05:52:38.139Z,88.85
2023-12-02T05:55:08.054Z,89.39
2023-12-02T05:57:36.888Z,89.72
2023-12-02T06:00:03.995Z,88.66
2023-12-02T06:02:30.565Z,89.25
2023-12-02T06:04:59.565Z,89.58
2023-12-02T06:07:28.630Z,89.04
2023-12-02T06:09:55.193Z,88.84
2023-12-02T06:12:24.305Z,89.44
2023-12-02T06:14:50.868Z,89.29
2023-12-02T06:17:17.381Z,89.20
2023-12-02T06:19:43.866Z,88.98
2023-12-02T06:22:10.432Z,90.11
2023-12-02T06:24:40.422Z,89.73
2023-12-02T06:27:09.745Z,89.35
2023-12-02T06:29:36.293Z,89.70
2023-12-02T06:32:02.929Z,89.59
2023-12-02T06:34:29.530Z,89.73
2023-12-02T06:36:56.185Z,89.36
2023-12-02T06:39:24.940Z,89.36
2023-12-02T06:41:54.190Z,90.11
2023-12-02T06:44:20.729Z,89.34
2023-12-02T06:46:47.349Z,89.59
2023-12-02T06:49:16.321Z,89.90
2023-12-02T06:51:43.023Z,90.32
2023-12-02T06:54:09.748Z,89.84
2023-12-02T06:56:38.642Z,90.11
2023-12-02T06:59:09.971Z,90.09
2023-12-02T07:01:36.716Z,90.04
2023-12-02T07:04:03.468Z,90.41
2023-12-02T07:06:30.671Z,89.69
2023-12-02T07:08:57.972Z,89.70
2023-12-02T07:11:24.999Z,90.28
2023-12-02T07:13:52.099Z,90.34
2023-12-02T07:16:18.651Z,90.51
2023-12-02T07:18:49.505Z,90.39
2023-12-02T07:21:16.314Z,89.56
2023-12-02T07:23:44.729Z,89.93
2023-12-02T07:26:14.293Z,90.58
2023-12-02T07:28:41.221Z,89.97
2023-12-02T07:31:16.759Z,89.64
2023-12-02T07:33:48.749Z,90.23
2023-12-02T07:36:15.389Z,90.17
2023-12-02T07:38:42.359Z,90.05
2023-12-02T07:41:11.489Z,90.35
2023-12-02T07:43:41.041Z,90.09
2023-12-02T07:46:10.844Z,90.06
2023-12-02T07:48:39.759Z,90.59
2023-12-02T07:51:07.845Z,89.93
2023-12-02T07:53:37.752Z,90.41
2023-12-02T07:56:07.324Z,90.08
2023-12-02T07:58:33.945Z,90.36
2023-12-02T08:01:01.183Z,90.31
2023-12-02T08:03:30.066Z,90.04
2023-12-02T08:05:56.697Z,89.96
2023-12-02T08:08:25.600Z,90.59
2023-12-02T08:10:56.701Z,90.25
2023-12-02T08:13:24.384Z,89.97
2023-12-02T08:15:51.011Z,90.45
2023-12-02T08:18:19.806Z,89.94
2023-12-02T08:20:47.978Z,90.19
2023-12-02T08:23:16.990Z,89.81
2023-12-02T08:25:45.911Z,89.93
2023-12-02T08:28:14.780Z,90.15
2023-12-02T08:30:43.644Z,89.81
2023-12-02T08:33:10.373Z,90.09
2023-12-02T08:35:36.884Z,90.21
2023-12-02T08:38:05.888Z,90.36
2023-12-02T08:40:32.671Z,89.70
2023-12-02T08:42:59.217Z,90.06
2023-12-02T08:45:25.925Z,89.80
2023-12-02T08:47:54.730Z,89.60
2023-12-02T08:50:21.420Z,90.11
2023-12-02T08:52:50.990Z,89.69
2023-12-02T08:55:18.010Z,89.91
2023-12-02T08:57:44.618Z,89.65
2023-12-02T09:00:11.802Z,89.64
2023-12-02T09:02:38.457Z,89.60
2023-12-02T09:05:06.461Z,89.49
2023-12-02T09:07:35.609Z,89.02
2023-12-02T09:10:04.368Z,89.33
2023-12-02T09:12:31.108Z,89.81
2023-12-02T09:15:09.226Z,89.05
2023-12-02T09:17:45.005Z,88.65
2023-12-02T09:20:49.558Z,89.58
2023-12-02T09:23:22.551Z,89.07
2023-12-02T09:25:52.814Z,88.34
2023-12-02T09:28:27.627Z,88.76
2023-12-02T09:31:08.350Z,89.31
2023-12-02T09:33:38.293Z,88.94
2023-12-02T09:36:06.122Z,89.30
2023-12-02T09:38:34.167Z,89.05
2023-12-02T09:41:21.966Z,88.59
2023-12-02T09:44:20.890Z,89.11
2023-12-02T09:47:07.316Z,88.36
2023-12-02T09:49:50.932Z,88.73
2023-12-02T09:52:35.761Z,88.38
2023-12-02T09:55:08.888Z,88.04
2023-12-02T09:57:41.648Z,88.00
2023-12-02T10:00:20.998Z,88.39
2023-12-02T10:03:15.384Z,87.68
2023-12-02T10:06:10.476Z,87.48
2023-12-02T10:09:09.173Z,86.91
2023-12-02T10:12:03.175Z,86.90
2023-12-02T10:14:35.653Z,86.81
2023-12-02T10:17:04.502Z,87.38
2023-12-02T10:19:32.454Z,87.30
2023-12-02T10:22:04.378Z,86.84
2023-12-02T10:24:43.260Z,86.51
2023-12-02T10:27:15.982Z,86.55
2023-12-02T10:29:42.447Z,86.89
2023-12-02T10:32:27.397Z,87.15
2023-12-02T10:35:01.824Z,86.54
2023-12-02T10:37:37.100Z,86.85
2023-12-02T10:40:10.182Z,86.55
2023-12-02T10:42:50.863Z,86.63
2023-12-02T10:45:19.039Z,86.87
2023-12-02T10:47:49.083Z,86.48
2023-12-02T10:50:18.169Z,86.95
2023-12-02T10:53:01.148Z,86.67
2023-12-02T10:55:32.359Z,86.68
2023-12-02T10:58:04.119Z,86.33
2023-12-02T11:00:34.501Z,86.51
2023-12-02T11:03:06.292Z,86.86
2023-12-02T11:05:46.476Z,86.57
2023-12-02T11:08:22.950Z,86.54
2023-12-02T11:10:53.455Z,85.99
2023-12-02T11:13:21.969Z,85.65
2023-12-02T11:16:07.267Z,85.95
2023-12-02T11:18:58.831Z,85.70
2023-12-02T11:21:51.390Z,85.60
2023-12-02T11:24:42.402Z,85.52
2023-12-02T11:27:45.398Z,85.57
2023-12-02T11:30:35.773Z,85.37
2023-12-02T11:33:05.028Z,85.37
2023-12-02T11:35:45.482Z,85.74
2023-12-02T11:38:20.378Z,85.45
2023-12-02T11:40:49.861Z,85.92
2023-12-02T11:43:22.449Z,86.08
2023-12-02T11:45:57.260Z,86.18
2023-12-02T11:48:43.958Z,85.84
2023-12-02T11:51:29.258Z,85.90
2023-12-02T11:54:12.218Z,85.93
2023-12-02T11:56:46.605Z,86.13
2023-12-02T11:59:22.184Z,86.04
2023-12-02T12:02:14.786Z,85.79
2023-12-02T12:05:00.375Z,85.78
2023-12-02T12:07:49.142Z,85.66
2023-12-02T12:10:25.597Z,85.86
2023-12-02T12:12:57.857Z,85.87
2023-12-02T12:15:26.860Z,85.95
2023-12-02T12:17:53.596Z,85.79
2023-12-02T12:20:21.864Z,85.57
2023-12-02T12:22:49.163Z,86.05
2023-12-02T12:25:18.508Z,85.91
2023-12-02T12:27:45.355Z,85.43
2023-12-02T12:30:12.480Z,85.44
2023-12-02T12:32:42.052Z,85.38
2023-12-02T12:35:15.844Z,85.17
2023-12-02T12:37:45.873Z,84.83
2023-12-02T12:40:14.115Z,85.04
2023-12-02T12:42:50.227Z,84.86
2023-12-02T12:45:19.460Z,84.86
2023-12-02T12:47:48.535Z,84.38
2023-12-02T12:50:16.890Z,84.68
2023-12-02T12:52:50.129Z,84.25
2023-12-02T12:55:26.158Z,84.56
2023-12-02T12:58:01.260Z,84.14
2023-12-02T13:00:34.221Z,83.88
2023-12-02T13:03:12.943Z,83.64
2023-12-02T13:05:46.306Z,83.69
2023-12-02T13:08:28.795Z,83.17
2023-12-02T13:10:56.714Z,83.23
2023-12-02T13:13:24.921Z,83.75
2023-12-02T13:15:53.554Z,83.14
2023-12-02T13:18:21.317Z,82.78
2023-12-02T13:20:50.517Z,82.80
2023-12-02T13:23:22.005Z,83.12
2023-12-02T13:25:55.580Z,82.91
2023-12-02T13:28:28.807Z,83.43
2023-12-02T13:30:58.113Z,83.22
2023-12-02T13:33:35.499Z,82.86
2023-12-02T13:36:09.939Z,82.83
2023-12-02T13:38:43.512Z,83.02
2023-12-02T13:41:50.936Z,83.03
2023-12-02T13:44:19.434Z,83.23
2023-12-02T13:46:57.830Z,83.06
2023-12-02T13:49:46.994Z,83.28
2023-12-02T13:52:31.535Z,83.24
2023-12-02T13:55:33.011Z,83.13
2023-12-02T13:58:02.473Z,82.81
2023-12-02T14:01:03.577Z,83.52
2023-12-02T14:04:08.256Z,83.47
2023-12-02T14:07:03.728Z,83.67
2023-12-02T14:09:34.827Z,83.56
2023-12-02T14:12:10.639Z,83.49
2023-12-02T14:15:14.803Z,83.55
2023-12-02T14:17:51.569Z,83.65
2023-12-02T14:20:42.539Z,83.95
2023-12-02T14:23:27.364Z,84.04
2023-12-02T14:26:09.049Z,83.75
2023-12-02T14:29:14.198Z,84.47
2023-12-02T14:32:26.039Z,84.15
2023-12-02T14:35:17.120Z,84.46
2023-12-02T14:37:58.168Z,84.46
2023-12-02T14:40:37.969Z,84.56
2023-12-02T14:43:25.183Z,84.63
2023-12-02T14:45:57.319Z,84.84
2023-12-02T14:48:29.560Z,84.83
2023-12-02T14:51:04.798Z,84.62
2023-12-02T14:53:41.655Z,84.97
2023-12-02T14:56:32.393Z,85.10
2023-12-02T14:59:05.681Z,85.04
2023-12-02T15:01:37.126Z,85.46
2023-12-02T15:04:04.710Z,85.29
2023-12-02T15:06:31.496Z,85.80
2023-12-02T15:09:02.288Z,85.67
2023-12-02T15:11:34.893Z,85.97
2023-12-02T15:14:03.299Z,85.76
2023-12-02T15:16:31.506Z,86.20
2023-12-02T15:18:59.212Z,86.16
2023-12-02T15:21:25.873Z,86.31
2023-12-02T15:23:53.485Z,86.32
2023-12-02T15:26:20.640Z,86.88
2023-12-02T15:28:49.599Z,86.98
2023-12-02T15:31:21.556Z,87.07
2023-12-02T15:33:57.632Z,87.03
2023-12-02T15:36:28.522Z,87.17
2023-12-02T15:38:56.530Z,87.52
2023-12-02T15:41:25.742Z,87.34
2023-12-02T15:43:56.888Z,87.92
2023-12-02T15:46:23.907Z,87.57
2023-12-02T15:48:52.935Z,87.84
2023-12-02T15:54:58.860Z,88.15
2023-12-02T15:58:20.409Z,88.26
2023-12-02T16:00:52.515Z,88.35
2023-12-02T16:07:49.563Z,88.38
2023-12-02T16:10:18.504Z,88.60
2023-12-02T16:12:47.251Z,88.88
2023-12-02T16:19:05.919Z,88.91
2023-12-02T16:21:32.895Z,89.07
2023-12-02T16:24:02.314Z,88.95
2023-12-02T16:26:29.575Z,89.24
2023-12-02T16:28:56.184Z,89.17
2023-12-02T16:31:28.099Z,89.22
2023-12-02T16:33:57.496Z,89.50
2023-12-02T16:36:27.285Z,89.37
2023-12-02T16:38:55.385Z,89.16
2023-12-02T16:41:22.472Z,89.53
2023-12-02T16:43:56.888Z,89.56
2023-12-02T16:46:23.491Z,90.12
2023-12-02T16:48:52.672Z,89.76
2023-12-02T16:51:21.729Z,89.29
2023-12-02T16:53:54.463Z,90.02
2023-12-02T16:56:32.539Z,89.85
2023-12-02T16:59:04.576Z,90.15
2023-12-02T17:01:35.956Z,89.72
2023-12-02T17:04:03.680Z,90.04
2023-12-02T17:06:30.298Z,89.91
2023-12-02T17:08:58.335Z,90.12
2023-12-02T17:11:30.702Z,90.13
2023-12-02T17:14:07.220Z,90.13
2023-12-02T17:16:34.246Z,90.35
2023-12-02T17:19:12.322Z,90.17
2023-12-02T17:21:54.418Z,90.51
2023-12-02T17:24:24.068Z,90.43
2023-12-02T17:26:54.014Z,90.55
2023-12-02T17:29:23.922Z,90.52
2023-12-02T17:31:57.648Z,90.27
2023-12-02T17:34:24.533Z,90.35
2023-12-02T17:36:56.709Z,90.54
2023-12-02T17:39:24.098Z,90.42
2023-12-02T17:41:52.840Z,90.88
2023-12-02T17:44:20.753Z,90.40
2023-12-02T17:46:49.127Z,90.49
2023-12-02T17:49:21.149Z,90.62
2023-12-02T17:51:50.420Z,90.77
2023-12-02T17:54:18.407Z,90.26
2023-12-02T17:56:47.648Z,90.69
2023-12-02T17:59:15.131Z,90.34
2023-12-02T18:01:41.785Z,90.88
2023-12-02T18:04:08.441Z,90.90
2023-12-02T18:06:36.416Z,90.59
2023-12-02T18:09:05.956Z,90.49
2023-12-02T18:11:34.962Z,90.63
2023-12-02T18:14:03.952Z,90.96
2023-12-02T18:16:33.032Z,91.18
2023-12-02T18:19:00.062Z,91.02
2023-12-02T18:21:32.851Z,90.53
2023-12-02T18:24:03.803Z,91.04
2023-12-02T18:26:30.667Z,91.27
2023-12-02T18:28:57.271Z,91.52
2023-12-02T18:31:23.887Z,91.30
2023-12-02T18:33:50.580Z,90.86
2023-12-02T18:36:18.037Z,91.47
2023-12-02T18:38:46.839Z,91.59
2023-12-02T18:41:16.618Z,91.46
2023-12-02T18:43:43.251Z,91.32
2023-12-02T18:46:10.306Z,91.38
2023-12-02T18:48:39.248Z,91.20
2023-12-02T18:51:08.393Z,91.78
2023-12-02T18:53:34.958Z,91.40
2023-12-02T18:56:01.637Z,92.07
2023-12-02T18:58:28.661Z,91.99
2023-12-02T19:00:55.330Z,91.82
2023-12-02T19:03:22.238Z,92.06
2023-12-02T19:05:49.055Z,91.75
2023-12-02T19:08:15.721Z,91.78
2023-12-02T19:10:47.930Z,92.09
2023-12-02T19:13:17.983Z,92.27
2023-12-02T19:15:44.628Z,91.86
2023-12-02T19:18:11.223Z,92.08
2023-12-02T19:20:38.097Z,92.49
2023-12-02T19:23:04.641Z,92.47
2023-12-02T19:25:31.271Z,92.60
2023-12-02T19:27:57.869Z,92.72
2023-12-02T19:30:24.576Z,92.70
2023-12-02T19:32:51.563Z,92.22
2023-12-02T19:35:18.158Z,92.61
2023-12-02T19:37:49.241Z,92.29
2023-12-02T19:40:15.978Z,92.80
2023-12-02T19:42:45.870Z,92.99
2023-12-02T19:45:12.436Z,93.02
2023-12-02T19:47:39.381Z,93.16
2023-12-02T19:50:08.775Z,92.66
2023-12-02T19:52:35.385Z,93.01
2023-12-02T19:55:05.700Z,93.13
2023-12-02T19:57:37.455Z,92.75
2023-12-02T20:00:05.567Z,92.75
2023-12-02T20:02:34.832Z,92.83
2023-12-02T20:05:01.921Z,92.85
2023-12-02T20:07:28.518Z,92.94
2023-12-02T20:09:58.086Z,93.16
2023-12-02T20:12:24.667Z,93.31
2023-12-02T20:14:54.196Z,93.00
2023-12-02T20:17:20.719Z,92.61
2023-12-02T20:19:50.601Z,93.21
2023-12-02T20:22:19.415Z,93.24
2023-12-02T20:24:46.155Z,93.17
2023-12-02T20:27:12.755Z,92.58
2023-12-02T20:29:39.410Z,93.17
2023-12-02T20:32:06.405Z,92.77
2023-12-02T20:34:33.612Z,92.92
2023-12-02T20:37:00.914Z,92.61
2023-12-02T20:39:32.467Z,92.83
2023-12-02T20:41:59.198Z,93.11
2023-12-02T20:44:25.867Z,92.75
2023-12-02T20:46:52.470Z,92.51
2023-12-02T20:49:20.411Z,93.10
2023-12-02T20:51:47.138Z,93.22
2023-12-02T20:54:16.016Z,92.89
2023-12-02T20:56:42.722Z,92.81
2023-12-02T20:59:09.495Z,92.35
2023-12-02T21:01:36.109Z,92.64
2023-12-02T21:04:03.839Z,92.83
2023-12-02T21:06:30.603Z,92.56
2023-12-02T21:08:57.551Z,92.71
2023-12-02T21:11:26.516Z,92.50
2023-12-02T21:13:53.094Z,93.04
2023-12-02T21:16:19.863Z,92.88
2023-12-02T21:18:46.955Z,92.63
2023-12-02T21:21:14.240Z,92.62
2023-12-02T21:23:40.898Z,92.96
2023-12-02T21:26:07.541Z,92.78
2023-12-02T21:28:36.349Z,92.83
2023-12-02T21:31:05.882Z,92.66
2023-12-02T21:33:36.808Z,93.01
2023-12-02T21:36:08.730Z,93.04
2023-12-02T21:38:47.450Z,93.00
2023-12-02T21:41:20.187Z,92.54
2023-12-02T21:43:50.622Z,93.00
2023-12-02T21:46:28.556Z,93.45
2023-12-02T21:48:59.195Z,93.16
2023-12-02T21:51:43.858Z,93.23
2023-12-02T21:54:15.833Z,93.31
2023-12-02T21:56:44.541Z,93.28
2023-12-02T21:59:16.042Z,93.31
2023-12-02T22:01:44.320Z,92.92
2023-12-02T22:04:21.121Z,93.52
2023-12-02T22:06:51.242Z,92.87
2023-12-02T22:09:40.823Z,93.04
2023-12-02T22:12:22.442Z,92.76
2023-12-02T22:14:50.527Z,93.24
2023-12-02T22:17:26.083Z,93.16
2023-12-02T22:19:56.139Z,93.52
2023-12-02T22:23:00.293Z,93.40
2023-12-02T22:25:29.429Z,93.60
2023-12-02T22:28:16.973Z,93.32
2023-12-02T22:30:49.771Z,93.53
2023-12-02T22:33:22.407Z,93.56
2023-12-02T22:36:05.353Z,93.53
2023-12-02T22:38:39.391Z,93.81
2023-12-02T22:41:08.753Z,93.79
2023-12-02T22:43:43.704Z,93.35
2023-12-02T22:46:15.068Z,93.69
2023-12-02T22:48:43.750Z,93.62
2023-12-02T22:51:15.820Z,93.58
2023-12-02T22:53:47.861Z,93.76
2023-12-02T22:56:14.492Z,93.38
2023-12-02T22:58:45.534Z,93.51
2023-12-02T23:01:20.970Z,93.28
2023-12-02T23:03:47.648Z,93.21
2023-12-02T23:06:16.766Z,93.58
2023-12-02T23:08:43.405Z,93.36
2023-12-02T23:11:50.346Z,93.43
2023-12-02T23:14:41.471Z,93.33
2023-12-02T23:17:14.778Z,93.10
2023-12-02T23:19:41.461Z,93.36
2023-12-02T23:22:10.971Z,93.52
2023-12-02T23:24:39.280Z,93.29
2023-12-02T23:27:11.430Z,93.38
2023-12-02T23:29:38.156Z,93.46
2023-12-02T23:32:06.526Z,93.15
2023-12-02T23:34:35.810Z,93.29
2023-12-02T23:37:02.932Z,93.48
2023-12-02T23:39:35.186Z,93.47
2023-12-02T23:42:03.028Z,93.58
2023-12-02T23:44:36.209Z,93.51
2023-12-02T23:47:03.246Z,93.58
2023-12-02T23:49:29.943Z,93.61
2023-12-02T23:51:56.514Z,94.01
2023-12-02T23:54:23.064Z,93.68
2023-12-02T23:56:50.600Z,93.46
2023-12-02T23:59:17.340Z,93.65
